Time;durP1;ratioP1;P1;durP2;ratioP2;P2;SDS_P1;SDS_P2;PMS_P1;PMS_P2;Temp;Humidity;BMP_temperature;BMP_pressure;BME280_temperature;BME280_humidity;BME280_pressure;Samples;Min_cycle;Max_cycle;Signal;HPM_P1;HPM_P2
2022/12/30 00:00:44;;;;;;;127.67;54.57;;;;;;;7.27;88.43;95610.06;4973092;28;20545;-76
2022/12/30 00:03:09;;;;;;;125.17;55.37;;;;;;;6.60;88.16;95499.00;4973101;28;20189;-76
2022/12/30 00:05:35;;;;;;;127.78;57.58;;;;;;;7.15;88.64;95587.88;4985837;28;20419;-75
2022/12/30 00:08:00;;;;;;;120.27;57.33;;;;;;;7.26;88.64;95602.41;4986468;28;20284;-76
2022/12/30 00:10:26;;;;;;;134.60;58.57;;;;;;;7.22;88.47;95616.81;4973084;28;20719;-76
2022/12/30 00:35:23;;;;;;;128.07;59.57;;;;;;;7.11;88.73;95616.19;4971490;28;20240;-76
2022/12/30 00:37:49;;;;;;;130.70;58.90;;;;;;;7.04;88.79;95607.41;4976325;28;20184;-76
2022/12/30 00:40:14;;;;;;;141.33;72.40;;;;;;;6.77;88.71;95568.59;4990578;28;20451;-76
2022/12/30 00:45:26;;;;;;;144.70;75.32;;;;;;;6.74;88.67;95556.69;4971157;28;20472;-76
2022/12/30 00:47:53;;;;;;;122.07;62.20;;;;;;;6.94;88.27;95588.47;4972312;28;20205;-76
2022/12/30 00:58:30;;;;;;;187.93;89.27;;;;;;;7.24;89.17;95631.38;4967102;28;20189;-76
2022/12/30 01:00:56;;;;;;;156.50;75.83;;;;;;;7.18;89.69;95614.53;4988594;28;20181;-75
2022/12/30 01:03:21;;;;;;;130.97;62.83;;;;;;;7.08;89.44;95595.63;4981568;28;20264;-78
2022/12/30 01:05:47;;;;;;;134.20;62.93;;;;;;;7.25;88.38;95616.47;4972072;28;20213;-76
2022/12/30 01:08:13;;;;;;;132.13;61.47;;;;;;;7.20;88.06;95609.13;4973766;28;20713;-76
2022/12/30 01:10:39;;;;;;;125.77;58.63;;;;;;;7.40;88.08;95639.16;4971602;28;20283;-76
2022/12/30 01:13:04;;;;;;;109.23;52.53;;;;;;;7.43;88.27;95636.19;4971654;28;20181;-76
2022/12/30 01:15:30;;;;;;;120.10;55.07;;;;;;;7.41;87.90;95638.16;4972098;28;20198;-76
2022/12/30 01:17:55;;;;;;;109.27;52.03;;;;;;;7.42;87.73;95638.97;4984453;28;20597;-76
2022/12/30 01:20:21;;;;;;;101.83;49.33;;;;;;;7.38;87.17;95632.44;4972262;28;20185;-76
2022/12/30 01:22:46;;;;;;;100.60;47.40;;;;;;;7.33;87.72;95640.81;4972043;28;20190;-76
2022/12/30 01:25:11;;;;;;;105.77;47.47;;;;;;;7.27;87.50;95635.44;4972245;28;20261;-76
2022/12/30 01:27:37;;;;;;;104.70;47.57;;;;;;;7.14;88.12;95636.00;4986964;28;20212;-76
2022/12/30 01:30:03;;;;;;;102.83;49.33;;;;;;;7.12;88.29;95628.31;4983427;28;20188;-76
2022/12/30 01:32:30;;;;;;;104.60;48.90;;;;;;;7.22;87.98;95630.72;4982747;28;20674;-76
2022/12/30 01:34:56;;;;;;;115.50;55.20;;;;;;;7.18;88.07;95626.81;4990358;28;20434;-76
2022/12/30 01:37:23;;;;;;;105.50;48.07;;;;;;;7.12;88.43;95617.03;4991242;28;20584;-76
2022/12/30 01:39:49;;;;;;;91.63;44.57;;;;;;;6.99;88.64;95595.81;4973693;28;20301;-76
2022/12/30 01:42:20;;;;;;;90.97;45.17;;;;;;;7.09;88.21;95612.94;4983314;28;20217;-76
2022/12/30 01:44:48;;;;;;;93.07;42.33;;;;;;;7.07;88.47;95614.94;4985972;28;20178;-76
2022/12/30 01:47:48;;;;;;;101.95;51.45;;;;;;;6.94;88.55;95609.41;4980334;28;20445;-76
2022/12/30 01:50:22;;;;;;;100.30;51.83;;;;;;;6.69;89.34;95598.22;4987049;28;20185;-76
2022/12/30 01:52:53;;;;;;;101.87;48.80;;;;;;;6.89;89.27;95618.75;4973488;28;20741;-76
2022/12/30 01:55:31;;;;;;;109.03;50.83;;;;;;;6.83;89.20;95609.78;4975703;28;20165;-76
2022/12/30 01:58:01;;;;;;;103.07;47.23;;;;;;;6.95;89.32;95615.44;4982664;28;20161;-76
2022/12/30 02:00:26;;;;;;;98.70;48.20;;;;;;;6.84;89.13;95603.56;4976584;28;20225;-76
2022/12/30 02:02:53;;;;;;;99.57;46.27;;;;;;;6.89;89.43;95614.34;4980756;28;20201;-76
2022/12/30 02:05:23;;;;;;;95.77;44.00;;;;;;;6.87;90.00;95608.47;4978443;28;20176;-77
2022/12/30 02:08:04;;;;;;;92.03;42.10;;;;;;;6.77;89.96;95592.13;4982623;28;20197;-76
2022/12/30 02:10:31;;;;;;;88.63;42.97;;;;;;;6.88;89.67;95601.41;4991171;28;20165;-76
2022/12/30 02:12:58;;;;;;;83.93;42.07;;;;;;;6.92;89.34;95606.13;4988686;28;20185;-76
2022/12/30 02:15:30;;;;;;;82.37;44.37;;;;;;;6.97;89.17;95610.88;4981749;28;20173;-76
2022/12/30 02:18:06;;;;;;;84.30;42.17;;;;;;;6.95;89.09;95610.22;4991636;28;20516;-76
2022/12/30 02:20:58;;;;;;;93.63;44.93;;;;;;;6.60;89.17;95553.94;4989862;28;20633;-76
2022/12/30 02:23:38;;;;;;;84.60;41.17;;;;;;;6.87;89.03;95603.22;4967004;28;20216;-76
2022/12/30 02:26:37;;;;;;;88.57;44.03;;;;;;;6.82;89.43;95601.13;4984048;28;20299;-76
2022/12/30 02:29:09;;;;;;;89.07;45.93;;;;;;;6.80;89.54;95603.09;4980943;28;20283;-76
2022/12/30 02:31:47;;;;;;;91.13;43.80;;;;;;;6.67;88.97;95594.13;4983717;28;20186;-76
2022/12/30 02:34:29;;;;;;;88.97;43.07;;;;;;;6.73;89.46;95607.38;4981036;28;20232;-76
2022/12/30 02:37:24;;;;;;;83.63;44.83;;;;;;;6.41;89.55;95560.34;4989789;28;20165;-76
2022/12/30 02:40:21;;;;;;;84.10;44.90;;;;;;;6.60;89.44;95587.94;4968723;28;20252;-77
2022/12/30 02:45:52;;;;;;;92.80;44.50;;;;;;;6.60;89.95;95601.00;4994910;28;20568;-76
2022/12/30 02:48:21;;;;;;;91.60;44.70;;;;;;;6.53;89.78;95593.03;4967291;28;20272;-76
2022/12/30 02:53:37;;;;;;;95.63;44.77;;;;;;;6.51;89.92;95602.00;4975187;28;20342;-76
2022/12/30 02:56:03;;;;;;;97.27;43.53;;;;;;;6.44;89.61;95579.16;4988378;28;20181;-76
2022/12/30 02:58:32;;;;;;;93.47;42.83;;;;;;;6.39;89.19;95571.00;4986946;28;20173;-76
2022/12/30 03:04:09;;;;;;;90.23;42.70;;;;;;;6.32;89.17;95588.31;4974856;28;20193;-76
2022/12/30 03:06:53;;;;;;;94.13;42.37;;;;;;;6.30;88.76;95602.56;4982038;28;20166;-76
2022/12/30 03:09:27;;;;;;;90.30;48.92;;;;;;;6.19;89.52;95606.34;4972990;28;20426;-76
2022/12/30 03:12:22;;;;;;;80.87;43.20;;;;;;;6.13;89.93;95604.38;4976304;28;20252;-76
2022/12/30 03:14:53;;;;;;;89.20;47.13;;;;;;;5.97;90.37;95604.38;4991692;28;20439;-76
2022/12/30 03:17:23;;;;;;;79.90;42.50;;;;;;;5.96;90.38;95613.22;4982373;28;20185;-76
2022/12/30 03:19:52;;;;;;;82.70;42.30;;;;;;;5.80;90.66;95589.63;4980358;28;20533;-76
2022/12/30 03:27:53;;;;;;;92.77;45.73;;;;;;;5.76;90.59;95604.84;4981457;28;20196;-77
2022/12/30 03:30:19;;;;;;;95.43;43.10;;;;;;;5.59;90.58;95595.34;4985434;28;20554;-77
2022/12/30 03:32:45;;;;;;;86.03;41.83;;;;;;;5.72;90.55;95610.53;4993773;28;20173;-76
2022/12/30 03:35:11;;;;;;;86.83;44.27;;;;;;;5.73;90.45;95617.41;4993616;28;20248;-76
2022/12/30 03:37:48;;;;;;;83.57;43.07;;;;;;;5.65;90.63;95618.22;4982941;28;20178;-76
2022/12/30 03:40:31;;;;;;;94.07;44.37;;;;;;;5.62;90.42;95615.94;4973920;28;20225;-76
2022/12/30 03:42:57;;;;;;;93.20;45.83;;;;;;;5.53;90.13;95609.88;4973567;28;20436;-76
2022/12/30 03:45:23;;;;;;;107.07;48.23;;;;;;;5.45;90.92;95619.50;4977817;28;20228;-76
2022/12/30 03:47:49;;;;;;;88.33;44.13;;;;;;;5.27;91.13;95607.38;4993194;28;20197;-76
2022/12/30 03:50:14;;;;;;;97.07;49.10;;;;;;;5.33;91.59;95616.38;4992198;28;20551;-76
2022/12/30 03:52:40;;;;;;;92.53;45.63;;;;;;;5.31;91.85;95613.91;4973720;28;20202;-76
2022/12/30 03:55:06;;;;;;;95.90;48.03;;;;;;;5.24;92.34;95601.66;4974081;28;20182;-76
2022/12/30 03:57:32;;;;;;;92.50;46.77;;;;;;;5.34;91.58;95618.00;4972581;28;20637;-76
2022/12/30 03:59:57;;;;;;;103.50;46.57;;;;;;;5.34;91.39;95610.16;4973552;28;20186;-76
2022/12/30 04:02:23;;;;;;;87.90;44.00;;;;;;;5.36;90.93;95603.00;4973269;28;20170;-76
2022/12/30 04:04:48;;;;;;;90.97;44.10;;;;;;;5.39;90.26;95627.94;4972325;28;20173;-76
2022/12/30 04:07:14;;;;;;;97.70;44.47;;;;;;;5.21;90.12;95601.97;4971342;28;20241;-76
2022/12/30 04:09:39;;;;;;;83.53;42.90;;;;;;;5.30;90.49;95619.28;4972827;28;20292;-76
2022/12/30 04:12:05;;;;;;;85.87;44.63;;;;;;;5.37;90.85;95628.09;4973281;28;20181;-76
2022/12/30 04:14:30;;;;;;;88.10;44.57;;;;;;;5.39;90.54;95628.75;4976428;28;20177;-76
2022/12/30 04:16:56;;;;;;;100.73;45.60;;;;;;;5.34;90.62;95640.69;4980525;28;20182;-76
2022/12/30 04:19:21;;;;;;;93.27;46.60;;;;;;;5.33;90.91;95629.41;4984860;28;20178;-76
2022/12/30 04:21:47;;;;;;;94.30;46.87;;;;;;;5.22;90.84;95627.91;4977418;28;20178;-76
2022/12/30 04:24:12;;;;;;;95.97;47.63;;;;;;;5.24;90.61;95641.63;4973135;28;20182;-75
2022/12/30 04:26:38;;;;;;;100.10;47.20;;;;;;;5.22;90.74;95642.75;4983705;28;20173;-75
2022/12/30 04:29:03;;;;;;;100.47;47.70;;;;;;;5.22;91.23;95645.34;4990228;28;20208;-75
2022/12/30 04:31:29;;;;;;;97.07;48.70;;;;;;;5.22;90.89;95642.75;4992462;28;20181;-76
2022/12/30 04:33:54;;;;;;;101.17;48.93;;;;;;;5.09;90.54;95619.72;4985471;28;20252;-75
2022/12/30 04:36:21;;;;;;;97.77;46.53;;;;;;;5.21;90.32;95634.09;4977282;28;20256;-77
2022/12/30 04:38:46;;;;;;;95.83;45.03;;;;;;;5.15;90.12;95633.91;4981363;28;20552;-76
2022/12/30 04:41:13;;;;;;;94.27;46.83;;;;;;;5.23;89.66;95647.00;4991729;28;20242;-76
2022/12/30 04:43:39;;;;;;;98.00;52.38;;;;;;;5.23;90.30;95647.00;4991490;28;20432;-76
2022/12/30 04:46:05;;;;;;;102.27;53.97;;;;;;;5.19;90.26;95656.13;4977882;28;20262;-75
2022/12/30 04:48:31;;;;;;;102.37;51.43;;;;;;;5.14;90.50;95650.56;4974125;28;20225;-76
2022/12/30 04:50:57;;;;;;;105.23;50.70;;;;;;;5.03;90.51;95636.00;4992063;28;20192;-76
2022/12/30 04:53:22;;;;;;;102.30;51.20;;;;;;;5.07;90.22;95657.38;4983302;28;20173;-76
2022/12/30 04:55:57;;;;;;;102.20;52.70;;;;;;;5.00;89.78;95656.38;4992077;28;20173;-76
2022/12/30 04:58:23;;;;;;;98.77;49.47;;;;;;;4.96;89.70;95655.84;4992083;28;20549;-76
2022/12/30 05:00:50;;;;;;;109.00;50.33;;;;;;;4.97;89.68;95667.13;4980728;28;20169;-76
2022/12/30 05:03:16;;;;;;;101.57;50.47;;;;;;;4.76;90.01;95650.06;4992282;28;20180;-76
2022/12/30 05:05:41;;;;;;;98.30;49.57;;;;;;;4.62;90.10;95642.00;4990292;28;20183;-76
2022/12/30 05:08:06;;;;;;;96.00;49.60;;;;;;;4.54;90.39;95629.75;4992175;28;20189;-76
2022/12/30 05:10:37;;;;;;;87.93;47.57;;;;;;;4.71;90.41;95667.16;4977949;28;20177;-76
2022/12/30 05:13:03;;;;;;;102.63;49.63;;;;;;;4.59;90.31;95648.31;4980777;28;20252;-76
2022/12/30 05:15:28;;;;;;;97.07;50.27;;;;;;;4.64;90.11;95666.94;4974842;28;20194;-77
2022/12/30 05:17:54;;;;;;;98.80;51.67;;;;;;;4.53;90.37;95660.19;4984125;28;20178;-77
2022/12/30 05:20:19;;;;;;;116.67;57.50;;;;;;;4.48;90.66;95672.88;4972566;28;20219;-76
2022/12/30 05:22:44;;;;;;;124.00;59.57;;;;;;;4.37;90.85;95660.09;4972300;28;20182;-76
2022/12/30 05:27:54;;;;;;;125.90;61.47;;;;;;;4.48;90.39;95682.50;4971034;28;20279;-76
2022/12/30 05:30:19;;;;;;;117.83;56.67;;;;;;;4.45;90.41;95674.97;4977206;28;20673;-76
2022/12/30 05:32:45;;;;;;;117.57;55.47;;;;;;;4.22;90.39;95632.16;4970795;28;20582;-76
2022/12/30 05:35:10;;;;;;;115.27;54.80;;;;;;;4.13;90.53;95623.47;4972241;28;20183;-76
2022/12/30 05:37:36;;;;;;;106.83;52.13;;;;;;;3.77;90.38;95584.44;4972305;28;20241;-76
2022/12/30 05:40:03;;;;;;;113.97;55.27;;;;;;;4.35;90.25;95675.06;4976812;28;20229;-76
2022/12/30 05:42:28;;;;;;;110.17;55.13;;;;;;;4.24;90.41;95651.84;4972145;28;20209;-76
2022/12/30 05:44:54;;;;;;;109.90;53.33;;;;;;;4.33;90.47;95673.56;4978198;28;20185;-76
2022/12/30 05:47:19;;;;;;;106.33;54.53;;;;;;;4.39;90.42;95697.25;4972494;28;20237;-76
2022/12/30 05:49:44;;;;;;;119.53;53.57;;;;;;;4.35;89.75;95698.53;4981515;28;20192;-77
2022/12/30 05:52:10;;;;;;;101.83;50.93;;;;;;;4.24;90.10;95696.16;4989599;28;20184;-77
2022/12/30 05:54:35;;;;;;;84.27;47.87;;;;;;;4.15;90.40;95684.84;4995037;28;20177;-77
2022/12/30 05:57:01;;;;;;;95.50;48.23;;;;;;;4.22;90.28;95697.28;4986914;28;20177;-76
2022/12/30 05:59:26;;;;;;;90.73;47.47;;;;;;;4.00;90.39;95662.09;4995568;28;20180;-76
2022/12/30 06:01:52;;;;;;;94.00;47.43;;;;;;;3.80;90.95;95648.44;4995492;28;20196;-77
2022/12/30 06:04:17;;;;;;;103.97;49.53;;;;;;;3.69;90.85;95631.25;4986670;28;20180;-76
2022/12/30 06:06:43;;;;;;;92.70;49.40;;;;;;;3.74;91.27;95636.81;4980842;28;20185;-76
2022/12/30 06:09:09;;;;;;;105.37;50.63;;;;;;;3.17;90.53;95530.59;4958911;28;20201;-76
2022/12/30 06:11:34;;;;;;;96.00;48.47;;;;;;;4.08;90.76;95683.81;4969540;28;20177;-77
2022/12/30 06:13:59;;;;;;;105.83;50.53;;;;;;;4.26;90.30;95699.44;4978522;28;20269;-76
2022/12/30 06:16:25;;;;;;;109.43;52.60;;;;;;;4.08;90.36;95677.78;4982903;28;20664;-76
2022/12/30 06:18:50;;;;;;;144.07;63.77;;;;;;;4.21;91.30;95690.44;4985223;28;20181;-77
2022/12/30 06:21:16;;;;;;;106.13;51.43;;;;;;;4.13;90.78;95673.78;4984221;28;20181;-76
2022/12/30 06:23:41;;;;;;;121.67;57.30;;;;;;;4.16;89.81;95670.03;4980615;28;20180;-76
2022/12/30 06:26:07;;;;;;;136.50;62.20;;;;;;;4.36;90.32;95704.56;4981240;28;20339;-76
2022/12/30 06:28:32;;;;;;;140.27;66.70;;;;;;;4.24;90.23;95685.72;4984053;28;20206;-76
2022/12/30 06:30:57;;;;;;;146.53;68.13;;;;;;;4.44;90.54;95705.44;4978548;28;20185;-76
2022/12/30 06:33:23;;;;;;;116.17;56.50;;;;;;;4.46;90.40;95708.72;4988255;28;20212;-77
2022/12/30 06:35:50;;;;;;;112.17;54.90;;;;;;;4.33;90.10;95684.81;4992319;28;20165;-76
2022/12/30 06:38:15;;;;;;;113.93;55.70;;;;;;;4.57;89.77;95722.47;4979017;28;20169;-77
2022/12/30 06:40:41;;;;;;;128.13;56.40;;;;;;;4.41;89.63;95687.47;4978929;28;20221;-77
2022/12/30 06:43:06;;;;;;;120.37;55.70;;;;;;;4.68;89.49;95723.03;4980101;28;20182;-77
2022/12/30 06:45:32;;;;;;;121.07;59.50;;;;;;;4.73;89.18;95714.75;4975087;28;20252;-77
2022/12/30 06:47:58;;;;;;;130.57;63.13;;;;;;;4.76;88.76;95706.59;4982677;28;20288;-77
2022/12/30 06:50:23;;;;;;;127.77;60.93;;;;;;;4.80;89.05;95706.16;4974300;28;20191;-77
2022/12/30 06:52:48;;;;;;;129.47;61.13;;;;;;;5.03;88.94;95710.84;4984163;28;20313;-77
2022/12/30 06:55:14;;;;;;;132.47;65.23;;;;;;;5.12;88.51;95700.28;4983870;28;20181;-77
2022/12/30 06:57:39;;;;;;;162.53;73.67;;;;;;;5.59;87.54;95705.84;4989757;28;20169;-77
2022/12/30 07:00:06;;;;;;;159.10;76.37;;;;;;;6.32;86.45;95726.91;4981757;28;20185;-77
2022/12/30 07:02:32;;;;;;;159.07;72.70;;;;;;;7.20;82.70;95735.63;4974935;28;20173;-77
2022/12/30 07:04:58;;;;;;;154.37;76.27;;;;;;;7.93;79.81;95690.75;4983250;28;20177;-78
2022/12/30 07:07:23;;;;;;;169.17;84.50;;;;;;;8.77;75.72;95707.34;4974854;28;20581;-77
2022/12/30 07:09:49;;;;;;;160.70;80.50;;;;;;;9.57;73.62;95736.38;4973747;28;20174;-77
2022/12/30 07:12:14;;;;;;;179.77;85.53;;;;;;;9.89;71.69;95737.78;4983824;28;20659;-78
2022/12/30 07:14:40;;;;;;;177.93;94.13;;;;;;;9.89;71.22;95714.09;4980547;28;20646;-77
2022/12/30 07:17:05;;;;;;;193.00;95.23;;;;;;;10.14;70.29;95736.44;4985022;28;20181;-77
2022/12/30 07:19:31;;;;;;;136.83;69.77;;;;;;;10.35;70.19;95740.94;4988049;28;20165;-77
2022/12/30 07:21:56;;;;;;;117.40;61.77;;;;;;;10.55;69.28;95749.06;4974505;28;20174;-77
2022/12/30 07:24:22;;;;;;;142.57;75.33;;;;;;;10.74;68.82;95743.13;4982548;28;20272;-77
2022/12/30 07:26:47;;;;;;;124.03;61.17;;;;;;;10.81;68.06;95741.34;4982505;28;20177;-76
2022/12/30 07:29:13;;;;;;;110.90;57.63;;;;;;;11.04;66.83;95721.88;4977893;28;20296;-77
2022/12/30 07:31:39;;;;;;;103.70;56.87;;;;;;;11.80;65.09;95743.84;4978771;28;20176;-77
2022/12/30 07:34:05;;;;;;;103.67;54.23;;;;;;;12.67;63.03;95746.53;4975532;28;20178;-77
2022/12/30 07:36:31;;;;;;;103.20;53.83;;;;;;;13.68;60.05;95758.50;4985924;28;20180;-77
2022/12/30 07:39:00;;;;;;;107.33;54.97;;;;;;;14.76;57.46;95754.19;4993408;28;20213;-77
2022/12/30 07:41:26;;;;;;;96.67;49.90;;;;;;;15.55;54.28;95742.94;4992786;28;20889;-77
2022/12/30 07:43:52;;;;;;;106.07;51.80;;;;;;;16.73;51.23;95740.69;4990275;28;20259;-77
2022/12/30 07:46:18;;;;;;;89.43;49.58;;;;;;;18.01;48.17;95730.09;4980051;28;20660;-77
2022/12/30 07:48:43;;;;;;;91.25;48.58;;;;;;;19.11;45.91;95758.31;4981697;28;20212;-77
2022/12/30 07:51:10;;;;;;;83.60;48.58;;;;;;;19.42;44.69;95714.22;4982392;28;20184;-77
2022/12/30 07:53:36;;;;;;;68.28;39.60;;;;;;;20.30;42.54;95762.22;4972908;28;20671;-77
2022/12/30 07:56:04;;;;;;;71.00;40.70;;;;;;;20.60;41.67;95748.41;4974117;28;20170;-76
2022/12/30 07:58:29;;;;;;;72.15;39.75;;;;;;;20.32;41.44;95732.56;4980604;28;20176;-77
2022/12/30 08:00:55;;;;;;;74.30;37.38;;;;;;;19.47;42.56;95751.66;4975605;28;20174;-77
2022/12/30 08:03:21;;;;;;;59.17;34.22;;;;;;;17.78;45.63;95737.31;4976543;28;20180;-77
2022/12/30 08:05:46;;;;;;;64.90;33.92;;;;;;;17.37;47.69;95754.22;4977910;28;20300;-77
2022/12/30 08:08:11;;;;;;;57.30;33.95;;;;;;;17.99;47.44;95753.50;4974941;28;20196;-77
2022/12/30 08:10:37;;;;;;;60.78;34.20;;;;;;;18.87;45.30;95754.97;4973304;28;20176;-77
2022/12/30 08:13:03;;;;;;;56.85;33.63;;;;;;;19.20;44.11;95740.81;4983742;28;20660;-76
2022/12/30 08:15:29;;;;;;;60.60;33.33;;;;;;;19.18;43.81;95751.78;4971460;28;20179;-77
2022/12/30 08:17:55;;;;;;;58.80;34.58;;;;;;;18.97;44.15;95731.13;4993017;28;20267;-77
2022/12/30 08:20:21;;;;;;;58.47;34.15;;;;;;;18.73;45.17;95730.44;4974063;28;20178;-77
2022/12/30 08:22:46;;;;;;;52.75;33.60;;;;;;;18.55;45.19;95746.63;4982403;28;20242;-78
2022/12/30 08:25:11;;;;;;;58.80;33.88;;;;;;;17.93;46.73;95756.28;4987828;28;20177;-77
2022/12/30 08:27:37;;;;;;;60.97;35.25;;;;;;;17.35;48.10;95733.97;4983514;28;20731;-77
2022/12/30 08:30:03;;;;;;;63.13;35.97;;;;;;;17.13;48.35;95724.91;5001730;28;20268;-77
2022/12/30 08:32:28;;;;;;;56.10;33.17;;;;;;;16.90;48.88;95722.22;4973097;28;20178;-77
2022/12/30 08:34:54;;;;;;;60.63;35.53;;;;;;;16.72;49.62;95744.38;4973264;28;20178;-78
2022/12/30 08:37:19;;;;;;;60.58;33.90;;;;;;;16.26;50.11;95738.88;4982090;28;20228;-78
2022/12/30 08:39:45;;;;;;;59.03;32.50;;;;;;;15.79;52.08;95758.00;4972256;28;20221;-77
2022/12/30 08:42:10;;;;;;;49.03;32.10;;;;;;;15.39;52.69;95749.56;4972550;28;20165;-75
2022/12/30 08:44:35;;;;;;;58.43;32.10;;;;;;;14.91;54.25;95737.97;4972655;28;20174;-76
2022/12/30 08:47:01;;;;;;;51.83;30.90;;;;;;;14.55;55.62;95741.25;4989179;28;20208;-76
2022/12/30 08:49:26;;;;;;;55.57;30.73;;;;;;;14.18;56.90;95745.53;4992057;28;20252;-76
2022/12/30 08:51:52;;;;;;;53.37;30.07;;;;;;;13.92;57.17;95741.94;4982846;28;20165;-76
2022/12/30 08:54:17;;;;;;;49.60;29.33;;;;;;;13.68;57.62;95745.28;4972267;28;20170;-76
2022/12/30 08:56:45;;;;;;;47.13;27.90;;;;;;;13.71;58.97;95744.06;4974079;28;20260;-76
2022/12/30 08:59:11;;;;;;;49.50;29.47;;;;;;;13.73;58.79;95744.66;4983718;28;20620;-76
2022/12/30 09:01:38;;;;;;;49.33;26.97;;;;;;;13.57;59.24;95744.09;4971690;28;20173;-75
2022/12/30 09:04:06;;;;;;;49.80;27.83;;;;;;;13.54;59.55;95749.78;4972530;28;20166;-75
2022/12/30 09:06:33;;;;;;;48.03;25.50;;;;;;;13.43;58.83;95745.13;4972266;28;20232;-76
2022/12/30 09:09:00;;;;;;;42.07;26.47;;;;;;;13.28;59.84;95743.72;4984115;28;20796;-75
2022/12/30 09:11:31;;;;;;;44.67;24.77;;;;;;;13.23;60.08;95735.63;4971371;28;20660;-74
2022/12/30 09:13:58;;;;;;;51.63;27.40;;;;;;;13.30;59.66;95736.41;4971291;28;20317;-75
2022/12/30 09:16:24;;;;;;;49.13;27.43;;;;;;;13.26;60.40;95729.91;4972050;28;20182;-75
2022/12/30 09:18:51;;;;;;;46.13;25.10;;;;;;;13.11;60.68;95732.75;4967493;28;20672;-76
2022/12/30 09:21:17;;;;;;;43.93;24.50;;;;;;;13.17;60.68;95726.66;4988239;28;20169;-76
2022/12/30 09:23:43;;;;;;;51.50;24.73;;;;;;;13.29;61.32;95732.13;4979871;28;20323;-76
2022/12/30 09:26:12;;;;;;;45.63;25.40;;;;;;;13.07;60.05;95727.03;4971922;28;20639;-75
2022/12/30 09:28:38;;;;;;;43.23;25.00;;;;;;;12.97;61.32;95731.94;4971500;28;20205;-76
2022/12/30 09:31:05;;;;;;;43.63;23.23;;;;;;;12.90;61.38;95730.28;4972184;28;20568;-74
2022/12/30 09:33:30;;;;;;;48.27;25.60;;;;;;;12.59;62.34;95710.56;4980870;28;20611;-75
2022/12/30 09:35:56;;;;;;;43.50;21.73;;;;;;;12.48;63.25;95722.53;4988028;28;20181;-75
2022/12/30 09:38:21;;;;;;;39.43;22.23;;;;;;;12.49;63.36;95704.88;4974806;28;20256;-75
2022/12/30 09:41:01;;;;;;;30.67;19.00;;;;;;;12.82;62.95;95713.63;4972463;28;20362;-76
2022/12/30 09:43:48;;;;;;;45.90;23.63;;;;;;;12.84;61.44;95716.88;4974941;28;20169;-75
2022/12/30 09:46:35;;;;;;;40.67;21.47;;;;;;;12.79;62.09;95715.88;4983326;28;20184;-75
2022/12/30 09:49:03;;;;;;;35.27;21.17;;;;;;;12.71;61.66;95685.16;4956049;28;20193;-76
2022/12/30 09:51:41;;;;;;;41.37;22.13;;;;;;;12.51;61.93;95691.47;4970012;28;20181;-76
2022/12/30 09:54:17;;;;;;;38.20;21.87;;;;;;;12.30;63.16;95701.19;4962454;28;20269;-75
2022/12/30 09:56:46;;;;;;;49.00;23.77;;;;;;;12.21;63.24;95694.47;4975162;28;20581;-76
2022/12/30 09:59:19;;;;;;;42.13;23.07;;;;;;;12.13;63.62;95691.19;4970836;28;20177;-75
2022/12/30 10:01:53;;;;;;;46.13;23.33;;;;;;;12.05;64.63;95692.19;4971231;28;20181;-75
2022/12/30 10:04:20;;;;;;;40.83;23.77;;;;;;;12.06;64.46;95691.19;4973913;28;20180;-75
2022/12/30 10:07:13;;;;;;;46.77;23.80;;;;;;;12.04;65.08;95685.28;4971371;28;20174;-75
2022/12/30 10:09:49;;;;;;;47.87;26.47;;;;;;;12.12;64.74;95681.63;4940836;28;20198;-76
2022/12/30 10:12:24;;;;;;;49.50;25.33;;;;;;;12.30;64.61;95687.16;4971643;28;20263;-75
2022/12/30 10:15:23;;;;;;;38.10;23.20;;;;;;;12.32;64.17;95675.41;4971546;28;20256;-75
2022/12/30 10:17:56;;;;;;;43.83;25.33;;;;;;;12.33;63.54;95668.28;4961828;28;20665;-76
2022/12/30 10:20:24;;;;;;;44.93;24.67;;;;;;;12.39;63.92;95670.94;4985647;28;20180;-75
2022/12/30 10:23:09;;;;;;;45.57;22.97;;;;;;;12.37;63.76;95662.38;4981112;28;20181;-75
2022/12/30 10:25:54;;;;;;;41.00;23.07;;;;;;;12.37;65.15;95662.38;4972919;28;20902;-75
2022/12/30 10:28:27;;;;;;;38.17;22.07;;;;;;;12.48;64.19;95658.34;4970182;28;20201;-75
2022/12/30 10:30:52;;;;;;;42.17;22.33;;;;;;;12.50;63.87;95651.03;4988596;28;20231;-75
2022/12/30 10:33:23;;;;;;;39.00;21.97;;;;;;;12.45;63.79;95630.50;4986360;28;20174;-75
2022/12/30 10:35:53;;;;;;;39.33;22.10;;;;;;;12.57;63.28;95653.69;4976760;28;20170;-75
2022/12/30 10:38:27;;;;;;;47.83;24.00;;;;;;;12.52;63.90;95640.28;4981033;28;20209;-75
2022/12/30 10:41:17;;;;;;;46.20;23.20;;;;;;;12.42;63.44;95644.13;4983382;28;20814;-75
2022/12/30 10:43:43;;;;;;;42.07;23.73;;;;;;;12.29;64.01;95635.38;4972188;28;20185;-75
2022/12/30 10:46:40;;;;;;;39.33;23.40;;;;;;;12.32;64.29;95627.88;4985973;28;20173;-75
2022/12/30 10:49:24;;;;;;;41.23;24.03;;;;;;;12.29;64.49;95628.25;4974041;28;20285;-75
2022/12/30 10:51:50;;;;;;;39.57;22.80;;;;;;;12.20;63.89;95608.34;4987334;28;20169;-75
2022/12/30 10:54:16;;;;;;;40.33;22.40;;;;;;;12.13;64.65;95607.53;4981537;28;20169;-75
2022/12/30 10:56:42;;;;;;;41.67;23.37;;;;;;;12.18;64.82;95615.69;4979139;28;20174;-75
2022/12/30 10:59:17;;;;;;;43.10;23.07;;;;;;;12.17;64.86;95616.69;4978131;28;20174;-75
2022/12/30 11:01:46;;;;;;;43.27;23.63;;;;;;;12.17;64.68;95610.59;4982924;28;20639;-75
2022/12/30 11:04:33;;;;;;;40.53;21.33;;;;;;;12.10;64.93;95607.97;4977618;28;20213;-75
2022/12/30 11:07:01;;;;;;;43.23;23.63;;;;;;;12.07;65.57;95600.44;4986555;28;20193;-75
2022/12/30 11:09:26;;;;;;;36.63;21.90;;;;;;;12.05;65.57;95600.63;4973447;28;20649;-75
2022/12/30 11:15:30;;;;;;;42.87;22.63;;;;;;;12.02;66.05;95592.31;4952703;28;20188;-75
2022/12/30 11:17:59;;;;;;;39.27;23.73;;;;;;;11.94;66.28;95580.13;4983364;28;20169;-75
2022/12/30 11:20:30;;;;;;;45.13;23.43;;;;;;;12.01;66.96;95586.25;4993155;28;20173;-75
2022/12/30 11:22:57;;;;;;;37.43;21.30;;;;;;;12.07;66.52;95587.25;4989306;28;20224;-75
2022/12/30 11:25:43;;;;;;;36.67;21.57;;;;;;;12.00;65.84;95573.25;4973757;28;20181;-75
2022/12/30 11:28:18;;;;;;;40.77;22.67;;;;;;;12.12;65.96;95586.63;4973306;28;20715;-74
2022/12/30 11:30:55;;;;;;;44.73;23.73;;;;;;;12.19;65.79;95584.81;4972009;28;20768;-75
2022/12/30 11:33:29;;;;;;;50.43;24.80;;;;;;;12.19;66.45;95569.81;4981388;28;20177;-74
2022/12/30 11:36:14;;;;;;;42.20;22.63;;;;;;;12.26;66.11;95569.78;4993319;28;20177;-75
2022/12/30 11:38:45;;;;;;;42.87;22.23;;;;;;;12.32;65.41;95590.91;4985235;28;20244;-77
2022/12/30 11:41:23;;;;;;;37.73;22.70;;;;;;;12.33;65.70;95587.25;4973670;28;20951;-74
2022/12/30 11:43:51;;;;;;;37.30;21.83;;;;;;;12.34;65.18;95582.78;4975056;28;20170;-77
2022/12/30 11:46:20;;;;;;;38.53;22.53;;;;;;;12.38;65.09;95579.53;4972513;28;20193;-76
2022/12/30 11:49:19;;;;;;;45.60;24.10;;;;;;;12.32;65.30;95574.25;4976587;28;20569;-76
2022/12/30 11:51:51;;;;;;;40.63;21.80;;;;;;;12.37;65.80;95572.63;4971672;28;20170;-75
2022/12/30 11:54:22;;;;;;;36.30;20.93;;;;;;;12.32;65.28;95574.25;4972116;28;20166;-76
2022/12/30 11:56:53;;;;;;;42.80;21.17;;;;;;;12.26;65.52;95581.16;4972703;28;20229;-75
2022/12/30 11:59:23;;;;;;;37.00;22.00;;;;;;;12.28;65.41;95581.75;4973885;28;20169;-73
2022/12/30 12:01:55;;;;;;;37.67;20.37;;;;;;;12.33;65.79;95579.34;4972992;28;20166;-74
2022/12/30 12:04:31;;;;;;;37.67;19.93;;;;;;;12.46;66.37;95571.41;4972772;28;20185;-74
2022/12/30 12:06:57;;;;;;;38.23;19.23;;;;;;;12.56;66.71;95578.91;4972200;28;20181;-73
2022/12/30 12:09:41;;;;;;;37.90;20.37;;;;;;;12.63;66.22;95577.06;4971513;28;20575;-74
2022/12/30 12:12:13;;;;;;;36.87;19.83;;;;;;;12.75;64.59;95580.72;4971436;28;20173;-74
2022/12/30 12:15:12;;;;;;;35.57;19.50;;;;;;;12.72;64.59;95575.00;4971605;28;20231;-74
2022/12/30 12:17:46;;;;;;;34.07;19.77;;;;;;;12.63;64.52;95577.06;4971496;28;20170;-74
2022/12/30 12:20:20;;;;;;;35.90;19.77;;;;;;;12.67;64.89;95588.84;4971698;28;20193;-74
2022/12/30 12:23:09;;;;;;;29.97;16.80;;;;;;;12.66;65.06;95575.84;4971186;28;20176;-74